createdAt,value
2018-03-19T00:00:41.396Z,-3.54
2018-03-19T00:01:41.643Z,-3.50
2018-03-19T00:02:41.884Z,-3.60
2018-03-19T00:03:42.110Z,-3.51
2018-03-19T00:04:42.351Z,-3.49
2018-03-19T00:05:42.592Z,-3.51
2018-03-19T00:06:42.828Z,-3.50
2018-03-19T00:07:43.063Z,-3.53
2018-03-19T00:08:43.288Z,-3.54
2018-03-19T00:09:43.530Z,-3.57
2018-03-19T00:10:43.770Z,-3.54
2018-03-19T00:11:44.007Z,-3.51
2018-03-19T00:12:44.236Z,-3.50
2018-03-19T00:13:44.491Z,-3.56
2018-03-19T00:14:44.735Z,-3.57
2018-03-19T00:15:44.965Z,-3.56
2018-03-19T00:16:45.207Z,-3.56
2018-03-19T00:17:45.445Z,-3.56
2018-03-19T00:18:45.677Z,-3.46
2018-03-19T00:19:45.919Z,-3.51
2018-03-19T00:20:46.150Z,-3.53
2018-03-19T00:21:46.392Z,-3.56
2018-03-19T00:22:46.630Z,-3.60
2018-03-19T00:23:46.882Z,-3.67
2018-03-19T00:24:47.109Z,-3.61
2018-03-19T00:25:47.344Z,-3.60
2018-03-19T00:26:47.585Z,-3.64
2018-03-19T00:27:47.866Z,-3.62
2018-03-19T00:28:48.067Z,-3.65
2018-03-19T00:29:48.318Z,-3.65
2018-03-19T00:30:48.546Z,-3.64
2018-03-19T00:31:48.790Z,-3.65
2018-03-19T00:32:49.030Z,-3.65
2018-03-19T00:33:49.276Z,-3.67
2018-03-19T00:34:49.521Z,-3.71
2018-03-19T00:35:49.753Z,-3.78
2018-03-19T00:36:49.980Z,-3.68
2018-03-19T00:37:50.208Z,-3.72
2018-03-19T00:38:50.473Z,-3.72
2018-03-19T00:39:50.700Z,-3.65
2018-03-19T00:40:50.957Z,-3.68
2018-03-19T00:41:51.204Z,-3.71
2018-03-19T00:42:51.435Z,-3.70
2018-03-19T00:43:51.685Z,-3.70
2018-03-19T00:44:51.882Z,-3.70
2018-03-19T00:45:52.116Z,-3.72
2018-03-19T00:46:52.353Z,-3.71
2018-03-19T00:47:52.608Z,-3.75
2018-03-19T00:48:52.843Z,-3.75
2018-03-19T00:49:53.065Z,-3.76
2018-03-19T00:50:53.309Z,-3.65
2018-03-19T00:51:53.547Z,-3.75
2018-03-19T00:52:53.765Z,-3.76
2018-03-19T00:53:54.000Z,-3.83
2018-03-19T00:54:54.230Z,-3.80
2018-03-19T00:55:54.456Z,-3.72
2018-03-19T00:56:54.700Z,-3.72
2018-03-19T00:57:54.929Z,-3.86
2018-03-19T00:58:55.171Z,-3.78
2018-03-19T00:59:55.395Z,-3.80
2018-03-19T01:02:27.717Z,-3.87
2018-03-19T01:03:27.956Z,-3.89
2018-03-19T01:04:28.201Z,-3.89
2018-03-19T01:05:28.442Z,-3.86
2018-03-19T01:06:28.688Z,-3.91
2018-03-19T01:07:28.929Z,-3.83
2018-03-19T01:08:29.168Z,-3.83
2018-03-19T01:09:29.411Z,-3.81
2018-03-19T01:10:29.655Z,-3.72
2018-03-19T01:11:29.896Z,-3.83
2018-03-19T01:12:30.135Z,-3.81
2018-03-19T01:13:30.379Z,-3.89
2018-03-19T01:14:30.619Z,-3.94
2018-03-19T01:15:30.867Z,-3.93
2018-03-19T01:16:31.108Z,-3.93
2018-03-19T01:17:31.356Z,-3.93
2018-03-19T01:18:31.581Z,-3.87
2018-03-19T01:19:31.827Z,-3.71
2018-03-19T01:20:32.072Z,-3.81
2018-03-19T01:21:32.313Z,-3.76
2018-03-19T01:22:32.549Z,-3.78
2018-03-19T01:23:32.792Z,-3.65
2018-03-19T01:24:33.037Z,-3.75
2018-03-19T01:25:33.276Z,-3.61
2018-03-19T01:26:33.523Z,-3.68
2018-03-19T01:27:33.763Z,-3.67
2018-03-19T01:28:34.003Z,-3.67
2018-03-19T01:29:34.244Z,-3.67
2018-03-19T01:30:34.492Z,-3.61
2018-03-19T01:31:34.730Z,-3.64
2018-03-19T01:32:34.972Z,-3.67
2018-03-19T01:33:35.214Z,-3.68
2018-03-19T01:34:35.457Z,-3.67
2018-03-19T01:35:35.695Z,-3.67
2018-03-19T01:36:35.940Z,-3.75
2018-03-19T01:37:36.181Z,-3.72
2018-03-19T01:38:36.429Z,-3.72
2018-03-19T01:39:36.673Z,-3.78
2018-03-19T01:40:36.911Z,-3.78
2018-03-19T01:41:37.155Z,-3.76
2018-03-19T01:42:37.399Z,-3.80
2018-03-19T01:43:37.643Z,-3.80
2018-03-19T01:44:37.881Z,-3.70
2018-03-19T01:45:38.121Z,-3.76
2018-03-19T01:46:38.374Z,-3.81
2018-03-19T01:47:38.606Z,-3.76
2018-03-19T01:48:38.846Z,-3.80
2018-03-19T01:49:39.091Z,-3.81
2018-03-19T01:50:39.332Z,-3.76
2018-03-19T01:51:39.575Z,-3.84
2018-03-19T01:52:39.813Z,-3.71
2018-03-19T01:53:40.059Z,-3.94
2018-03-19T01:54:40.303Z,-3.87
2018-03-19T01:55:40.545Z,-3.86
2018-03-19T01:56:40.788Z,-3.83
2018-03-19T01:57:41.035Z,-3.94
2018-03-19T01:58:41.275Z,-3.86
2018-03-19T01:59:41.519Z,-3.93
2018-03-19T02:00:41.763Z,-3.94
2018-03-19T02:01:42.009Z,-3.87
2018-03-19T02:02:42.248Z,-3.90
2018-03-19T02:03:42.496Z,-3.91
2018-03-19T02:04:42.732Z,-3.96
2018-03-19T02:05:42.974Z,-3.89
2018-03-19T02:06:43.208Z,-3.90
2018-03-19T02:07:43.456Z,-3.90
2018-03-19T02:08:43.683Z,-3.87
2018-03-19T02:09:43.924Z,-3.90
2018-03-19T02:10:44.174Z,-3.94
2018-03-19T02:11:44.414Z,-3.87
2018-03-19T02:12:44.655Z,-3.93
2018-03-19T02:13:44.896Z,-3.98
2018-03-19T02:14:45.140Z,-4.02
2018-03-19T02:15:45.384Z,-3.91
2018-03-19T02:16:45.628Z,-3.99
2018-03-19T02:17:45.875Z,-3.94
2018-03-19T02:18:46.114Z,-3.96
2018-03-19T02:19:46.353Z,-3.99
2018-03-19T02:20:46.594Z,-3.91
2018-03-19T02:21:46.837Z,-3.89
2018-03-19T02:22:47.104Z,-3.87
2018-03-19T02:23:47.306Z,-3.90
2018-03-19T02:24:47.556Z,-3.90
2018-03-19T02:25:47.804Z,-3.89
2018-03-19T02:26:48.042Z,-3.91
2018-03-19T02:27:48.287Z,-3.90
2018-03-19T02:28:48.524Z,-3.87
2018-03-19T02:29:48.766Z,-3.89
2018-03-19T02:30:49.011Z,-3.91
2018-03-19T02:31:49.253Z,-3.87
2018-03-19T02:32:49.522Z,-3.87
2018-03-19T02:33:49.737Z,-3.98
2018-03-19T02:34:49.980Z,-3.99
2018-03-19T02:35:50.222Z,-3.90
2018-03-19T02:36:50.466Z,-3.91
2018-03-19T02:37:50.709Z,-3.99
2018-03-19T02:38:50.955Z,-4.02
2018-03-19T02:39:51.195Z,-3.98
2018-03-19T02:40:51.435Z,-3.94
2018-03-19T02:41:51.677Z,-4.04
2018-03-19T02:42:51.918Z,-3.98
2018-03-19T02:43:52.156Z,-3.94
2018-03-19T02:44:52.400Z,-3.90
2018-03-19T02:45:52.640Z,-3.99
2018-03-19T02:46:52.888Z,-4.01
2018-03-19T02:47:53.130Z,-4.09
2018-03-19T02:48:53.376Z,-4.09
2018-03-19T02:49:53.606Z,-4.02
2018-03-19T02:50:53.847Z,-3.93
2018-03-19T02:51:54.155Z,-4.07
2018-03-19T02:52:54.337Z,-4.07
2018-03-19T02:53:54.578Z,-4.05
2018-03-19T02:54:54.827Z,-4.02
2018-03-19T02:55:55.063Z,-3.96
2018-03-19T02:56:55.306Z,-4.04
2018-03-19T02:57:55.549Z,-4.09
2018-03-19T02:58:55.785Z,-4.12
2018-03-19T02:59:56.029Z,-4.12
2018-03-19T03:00:56.270Z,-4.08
2018-03-19T03:01:56.515Z,-4.08
2018-03-19T03:02:56.757Z,-4.04
2018-03-19T03:03:56.994Z,-4.09
2018-03-19T03:04:57.235Z,-4.02
2018-03-19T03:05:57.481Z,-3.99
2018-03-19T03:06:57.723Z,-4.14
2018-03-19T03:07:57.967Z,-4.11
2018-03-19T03:08:58.210Z,-4.05
2018-03-19T03:09:58.453Z,-4.09
2018-03-19T03:10:58.694Z,-4.08
2018-03-19T03:11:58.935Z,-4.07
2018-03-19T03:12:59.198Z,-4.08
2018-03-19T03:13:59.435Z,-4.15
2018-03-19T03:14:59.677Z,-4.11
2018-03-19T03:15:59.919Z,-4.19
2018-03-19T03:17:00.164Z,-4.26
2018-03-19T03:18:00.404Z,-4.29
2018-03-19T03:19:00.645Z,-4.25
2018-03-19T03:20:00.884Z,-4.20
2018-03-19T03:21:01.129Z,-4.22
2018-03-19T03:22:01.372Z,-4.26
2018-03-19T03:23:01.615Z,-4.25
2018-03-19T03:24:01.856Z,-4.22
2018-03-19T03:25:02.126Z,-4.29
2018-03-19T03:26:02.339Z,-4.32
2018-03-19T03:27:02.587Z,-4.29
2018-03-19T03:28:02.830Z,-4.28
2018-03-19T03:29:03.074Z,-4.37
2018-03-19T03:30:03.316Z,-4.29
2018-03-19T03:31:03.555Z,-4.28
2018-03-19T03:32:03.801Z,-4.36
2018-03-19T03:33:04.043Z,-4.41
2018-03-19T03:34:04.285Z,-4.38
2018-03-19T03:35:04.527Z,-4.37
2018-03-19T03:36:04.773Z,-4.40
2018-03-19T03:37:05.006Z,-4.41
2018-03-19T03:38:05.249Z,-4.36
2018-03-19T03:39:05.498Z,-4.41
2018-03-19T03:40:05.738Z,-4.44
2018-03-19T03:41:05.980Z,-4.43
2018-03-19T03:42:06.227Z,-4.48
2018-03-19T03:43:06.470Z,-4.46
2018-03-19T03:44:06.716Z,-4.33
2018-03-19T03:45:06.953Z,-4.41
2018-03-19T03:46:07.184Z,-4.47
2018-03-19T03:47:07.427Z,-4.37
2018-03-19T03:48:07.669Z,-4.38
2018-03-19T03:49:07.917Z,-4.40
2018-03-19T03:50:08.156Z,-4.40
2018-03-19T03:51:08.399Z,-4.46
2018-03-19T03:52:08.638Z,-4.54
2018-03-19T03:53:08.888Z,-4.48
2018-03-19T03:54:09.138Z,-4.40
2018-03-19T03:55:09.377Z,-4.54
2018-03-19T03:56:09.622Z,-4.50
2018-03-19T03:57:09.877Z,-4.43
2018-03-19T03:58:10.114Z,-4.47
2018-03-19T03:59:10.351Z,-4.48
2018-03-19T04:00:10.595Z,-4.46
2018-03-19T04:01:10.838Z,-4.41
2018-03-19T04:02:11.080Z,-4.48
2018-03-19T04:03:11.322Z,-4.47
2018-03-19T04:04:11.562Z,-4.51
2018-03-19T04:05:11.806Z,-4.50
2018-03-19T04:06:12.049Z,-4.51
2018-03-19T04:07:12.294Z,-4.55
2018-03-19T04:08:12.538Z,-4.54
2018-03-19T04:09:12.776Z,-4.59
2018-03-19T04:10:13.022Z,-4.58
2018-03-19T04:11:13.260Z,-4.58
2018-03-19T04:12:13.508Z,-4.51
2018-03-19T04:13:13.750Z,-4.58
2018-03-19T04:14:13.994Z,-4.48
2018-03-19T04:15:14.246Z,-4.58
2018-03-19T04:16:14.485Z,-4.64
2018-03-19T04:17:14.733Z,-4.57
2018-03-19T04:18:14.971Z,-4.59
2018-03-19T04:19:15.213Z,-4.59
2018-03-19T04:20:15.460Z,-4.73
2018-03-19T04:21:15.701Z,-4.68
2018-03-19T04:22:15.943Z,-4.73
2018-03-19T04:23:16.186Z,-4.65
2018-03-19T04:24:16.453Z,-4.69
2018-03-19T04:25:16.673Z,-4.79
2018-03-19T04:26:16.915Z,-4.76
2018-03-19T04:27:17.157Z,-4.69
2018-03-19T04:28:17.402Z,-4.79
2018-03-19T04:29:17.649Z,-4.77
2018-03-19T04:30:17.886Z,-4.75
2018-03-19T04:31:18.130Z,-4.80
2018-03-19T04:32:18.370Z,-4.71
2018-03-19T04:33:18.611Z,-4.71
2018-03-19T04:34:18.853Z,-4.86
2018-03-19T04:35:19.100Z,-4.86
2018-03-19T04:36:19.339Z,-4.83
2018-03-19T04:37:19.579Z,-4.80
2018-03-19T04:38:19.820Z,-4.76
2018-03-19T04:39:20.094Z,-4.86
2018-03-19T04:40:20.333Z,-4.94
2018-03-19T04:41:20.578Z,-4.86
2018-03-19T04:42:20.818Z,-4.97
2018-03-19T04:43:21.058Z,-4.91
2018-03-19T04:44:21.307Z,-4.95
2018-03-19T04:45:21.548Z,-4.95
2018-03-19T04:46:21.793Z,-4.95
2018-03-19T04:47:22.038Z,-4.89
2018-03-19T04:48:22.280Z,-4.95
2018-03-19T04:49:22.525Z,-4.95
2018-03-19T04:50:22.766Z,-4.94
2018-03-19T04:51:23.007Z,-4.94
2018-03-19T04:52:23.254Z,-4.98
2018-03-19T04:53:23.491Z,-4.98
2018-03-19T04:54:23.731Z,-5.03
2018-03-19T04:55:23.975Z,-5.07
2018-03-19T04:56:24.214Z,-5.01
2018-03-19T04:57:24.458Z,-5.03
2018-03-19T04:58:24.698Z,-5.07
2018-03-19T04:59:24.945Z,-5.08
2018-03-19T05:00:25.187Z,-5.05
2018-03-19T05:01:25.433Z,-5.19
2018-03-19T05:02:25.680Z,-5.08
2018-03-19T05:03:25.976Z,-5.07
2018-03-19T05:04:26.169Z,-5.11
2018-03-19T05:05:26.410Z,-5.01
2018-03-19T05:06:26.660Z,-5.04
2018-03-19T05:07:26.902Z,-5.03
2018-03-19T05:08:27.147Z,-5.04
2018-03-19T05:09:27.390Z,-5.05
2018-03-19T05:10:27.632Z,-5.04
2018-03-19T05:11:27.872Z,-5.08
2018-03-19T05:12:28.127Z,-5.11
2018-03-19T05:13:28.368Z,-5.12
2018-03-19T05:14:28.613Z,-5.08
2018-03-19T05:15:28.868Z,-5.05
2018-03-19T05:16:29.100Z,-5.04
2018-03-19T05:17:29.343Z,-5.03
2018-03-19T05:18:29.582Z,-5.07
2018-03-19T05:19:29.834Z,-5.07
2018-03-19T05:20:30.075Z,-5.12
2018-03-19T05:21:30.321Z,-5.19
2018-03-19T05:22:30.568Z,-5.12
2018-03-19T05:23:30.809Z,-5.08
2018-03-19T05:24:31.057Z,-5.16
2018-03-19T05:25:31.302Z,-5.03
2018-03-19T05:26:31.547Z,-5.19
2018-03-19T05:27:31.792Z,-5.19
2018-03-19T05:28:32.039Z,-5.19
2018-03-19T05:29:32.279Z,-5.17
2018-03-19T05:30:32.520Z,-5.22
2018-03-19T05:31:32.762Z,-5.04
2018-03-19T05:32:33.003Z,-5.05
2018-03-19T05:33:33.247Z,-5.08
2018-03-19T05:34:33.492Z,-5.08
2018-03-19T05:35:33.740Z,-5.03
2018-03-19T05:36:33.981Z,-5.07
2018-03-19T05:37:34.222Z,-5.04
2018-03-19T05:38:34.540Z,-5.07
2018-03-19T05:39:34.706Z,-5.11
2018-03-19T05:40:34.940Z,-5.20
2018-03-19T05:41:35.194Z,-5.04
2018-03-19T05:42:35.454Z,-5.05
2018-03-19T05:43:35.668Z,-5.08
2018-03-19T05:44:35.910Z,-5.05
2018-03-19T05:45:36.159Z,-5.12
2018-03-19T05:46:36.403Z,-5.17
2018-03-19T05:47:36.649Z,-5.17
2018-03-19T05:48:36.887Z,-5.19
2018-03-19T05:49:37.130Z,-5.05
2018-03-19T05:50:37.374Z,-5.07
2018-03-19T05:51:37.617Z,-5.07
2018-03-19T05:52:37.863Z,-5.03
2018-03-19T05:53:38.119Z,-5.05
2018-03-19T05:54:38.357Z,-5.05
2018-03-19T05:55:38.599Z,-5.03
2018-03-19T05:56:38.904Z,-5.07
2018-03-19T05:57:39.085Z,-5.04
2018-03-19T05:58:39.324Z,-5.08
2018-03-19T05:59:39.564Z,-5.00
2018-03-19T06:00:39.808Z,-4.95
2018-03-19T06:01:40.049Z,-5.00
2018-03-19T06:02:40.320Z,-4.94
2018-03-19T06:03:40.538Z,-4.89
2018-03-19T06:04:40.785Z,-5.00
2018-03-19T06:05:41.031Z,-4.93
2018-03-19T06:06:41.278Z,-4.89
2018-03-19T06:07:41.520Z,-4.87
2018-03-19T06:08:41.772Z,-4.93
2018-03-19T06:09:42.024Z,-4.89
2018-03-19T06:10:42.265Z,-4.91
2018-03-19T06:11:42.511Z,-4.75
2018-03-19T06:12:42.753Z,-4.83
2018-03-19T06:13:42.992Z,-4.83
2018-03-19T06:14:43.239Z,-4.77
2018-03-19T06:15:43.523Z,-4.75
2018-03-19T06:16:43.717Z,-4.75
2018-03-19T06:17:43.964Z,-4.75
2018-03-19T06:18:44.212Z,-4.64
2018-03-19T06:19:44.460Z,-4.75
2018-03-19T06:20:44.706Z,-4.79
2018-03-19T06:21:44.946Z,-4.80
2018-03-19T06:22:45.189Z,-4.75
2018-03-19T06:23:45.435Z,-4.61
2018-03-19T06:24:45.680Z,-4.82
2018-03-19T06:25:45.936Z,-4.62
2018-03-19T06:26:46.168Z,-4.58
2018-03-19T06:27:46.414Z,-4.50
2018-03-19T06:28:46.668Z,-4.57
2018-03-19T06:29:46.920Z,-4.48
2018-03-19T06:30:47.164Z,-4.47
2018-03-19T06:31:47.405Z,-4.51
2018-03-19T06:32:47.653Z,-4.46
2018-03-19T06:33:47.928Z,-4.40
2018-03-19T06:34:48.144Z,-4.36
2018-03-19T06:35:48.388Z,-4.37
2018-03-19T06:36:48.644Z,-4.41
2018-03-19T06:37:48.863Z,-4.40
2018-03-19T06:38:49.120Z,-4.37
2018-03-19T06:39:49.365Z,-4.25
2018-03-19T06:40:49.609Z,-4.08
2018-03-19T06:41:49.853Z,-4.11
2018-03-19T06:42:50.099Z,-4.19
2018-03-19T06:43:50.343Z,-4.12
2018-03-19T06:44:50.586Z,-4.12
2018-03-19T06:45:50.829Z,-4.12
2018-03-19T06:46:51.074Z,-4.12
2018-03-19T06:47:51.320Z,-4.09
2018-03-19T06:48:51.561Z,-4.07
2018-03-19T06:49:51.850Z,-3.91
2018-03-19T06:50:52.055Z,-3.89
2018-03-19T06:51:52.302Z,-3.94
2018-03-19T06:52:52.549Z,-3.86
2018-03-19T06:53:52.794Z,-3.67
2018-03-19T06:54:53.037Z,-3.70
2018-03-19T06:55:53.283Z,-3.83
2018-03-19T06:56:53.521Z,-3.76
2018-03-19T06:57:53.753Z,-3.78
2018-03-19T06:58:53.994Z,-3.80
2018-03-19T06:59:54.244Z,-3.75
2018-03-19T07:00:54.539Z,-3.75
2018-03-19T07:01:54.732Z,-3.78
2018-03-19T07:02:54.976Z,-3.75
2018-03-19T07:03:55.223Z,-3.87
2018-03-19T07:04:55.468Z,-3.93
2018-03-19T07:05:55.712Z,-3.93
2018-03-19T07:06:55.959Z,-3.89
2018-03-19T07:07:56.206Z,-3.83
2018-03-19T07:08:56.451Z,-3.98
2018-03-19T07:09:56.696Z,-3.84
2018-03-19T07:10:56.940Z,-3.83
2018-03-19T07:11:57.188Z,-3.62
2018-03-19T07:12:57.448Z,-3.78
2018-03-19T07:13:57.676Z,-3.65
2018-03-19T07:14:57.922Z,-3.62
2018-03-19T07:15:58.168Z,-3.89
2018-03-19T07:16:58.417Z,-3.84
2018-03-19T07:17:58.661Z,-3.75
2018-03-19T07:18:58.913Z,-3.76
2018-03-19T07:19:59.159Z,-3.78
2018-03-19T07:20:59.404Z,-3.68
2018-03-19T07:21:59.648Z,-3.65
2018-03-19T07:22:59.893Z,-3.81
2018-03-19T07:24:00.138Z,-3.89
2018-03-19T07:25:00.383Z,-3.87
2018-03-19T07:26:00.626Z,-3.94
2018-03-19T07:27:00.876Z,-3.98
2018-03-19T07:28:01.116Z,-3.89
2018-03-19T07:29:01.363Z,-3.83
2018-03-19T07:30:01.606Z,-3.75
2018-03-19T07:31:01.855Z,-3.68
2018-03-19T07:32:02.102Z,-3.64
2018-03-19T07:33:02.346Z,-3.64
2018-03-19T07:34:02.596Z,-3.75
2018-03-19T07:35:02.837Z,-3.90
2018-03-19T07:36:03.077Z,-3.83
2018-03-19T07:37:03.319Z,-3.78
2018-03-19T07:38:03.568Z,-3.80
2018-03-19T07:39:03.816Z,-3.91
2018-03-19T07:40:04.058Z,-3.94
2018-03-19T07:41:04.314Z,-3.94
2018-03-19T07:42:04.553Z,-3.93
2018-03-19T07:43:04.796Z,-3.80
2018-03-19T07:44:05.042Z,-3.78
2018-03-19T07:45:05.286Z,-3.67
2018-03-19T07:46:05.535Z,-3.68
2018-03-19T07:47:05.778Z,-3.65
2018-03-19T07:48:06.029Z,-3.70
2018-03-19T07:49:06.272Z,-3.65
2018-03-19T07:50:06.516Z,-3.61
2018-03-19T07:51:06.808Z,-3.62
2018-03-19T07:52:07.007Z,-3.60
2018-03-19T07:53:07.252Z,-3.81
2018-03-19T07:54:07.500Z,-3.78
2018-03-19T07:55:07.750Z,-3.83
2018-03-19T07:56:07.994Z,-3.90
2018-03-19T07:57:08.242Z,-3.86
2018-03-19T07:58:08.481Z,-3.84
2018-03-19T07:59:09.708Z,-3.84
2018-03-19T08:00:08.973Z,-3.86
2018-03-19T08:01:09.222Z,-3.75
2018-03-19T08:02:09.470Z,-3.71
2018-03-19T08:03:09.719Z,-3.54
2018-03-19T08:04:09.965Z,-3.50
2018-03-19T08:05:10.213Z,-3.47
2018-03-19T08:06:10.462Z,-3.54
2018-03-19T08:07:10.722Z,-3.38
2018-03-19T08:08:10.972Z,-3.29
2018-03-19T08:09:11.216Z,-3.36
2018-03-19T08:10:11.465Z,-3.32
2018-03-19T08:11:11.716Z,-3.18
2018-03-19T08:12:11.970Z,-3.18
2018-03-19T08:13:12.207Z,-3.22
2018-03-19T08:14:12.460Z,-3.33
2018-03-19T08:15:12.706Z,-3.36
2018-03-19T08:16:12.946Z,-3.32
2018-03-19T08:17:13.194Z,-3.36
2018-03-19T08:18:13.434Z,-3.38
2018-03-19T08:19:13.688Z,-3.36
2018-03-19T08:20:13.949Z,-3.32
2018-03-19T08:21:14.182Z,-3.41
2018-03-19T08:22:14.432Z,-3.32
2018-03-19T08:23:14.739Z,-3.23
2018-03-19T08:24:14.933Z,-3.11
2018-03-19T08:25:15.184Z,-3.00
2018-03-19T08:26:15.430Z,-3.02
2018-03-19T08:27:15.678Z,-3.08
2018-03-19T08:28:15.935Z,-3.11
2018-03-19T08:29:16.181Z,-3.14
2018-03-19T08:30:16.427Z,-3.02
2018-03-19T08:31:16.678Z,-2.94
2018-03-19T08:32:16.926Z,-2.94
2018-03-19T08:33:17.176Z,-2.87
2018-03-19T08:34:17.442Z,-2.81
2018-03-19T08:35:17.676Z,-2.89
2018-03-19T08:36:17.923Z,-2.90
2018-03-19T08:37:18.167Z,-2.81
2018-03-19T08:38:18.417Z,-2.85
2018-03-19T08:39:18.668Z,-2.66
2018-03-19T08:40:18.914Z,-2.79
2018-03-19T08:41:19.164Z,-2.64
2018-03-19T08:42:19.422Z,-2.69
2018-03-19T08:43:19.666Z,-2.72
2018-03-19T08:44:19.911Z,-2.71
2018-03-19T08:45:20.158Z,-2.68
2018-03-19T08:46:20.410Z,-2.50
2018-03-19T08:47:20.658Z,-2.50
2018-03-19T08:48:20.906Z,-2.36
2018-03-19T08:49:21.160Z,-2.48
2018-03-19T08:50:21.407Z,-2.45
2018-03-19T08:51:21.684Z,-2.36
2018-03-19T08:52:21.950Z,-2.28
2018-03-19T08:53:22.199Z,-2.24
2018-03-19T08:54:22.448Z,-2.13
2018-03-19T08:55:22.695Z,-2.28
2018-03-19T08:56:22.945Z,-2.26
2018-03-19T08:57:23.192Z,-2.24
2018-03-19T08:58:23.443Z,-2.18
2018-03-19T08:59:23.701Z,-2.29
2018-03-19T09:00:23.937Z,-2.36
2018-03-19T09:01:24.187Z,-2.33
2018-03-19T09:02:24.435Z,-2.24
2018-03-19T09:03:24.677Z,-2.33
2018-03-19T09:04:24.933Z,-2.21
2018-03-19T09:05:25.180Z,-2.23
2018-03-19T09:06:25.435Z,-2.39
2018-03-19T09:07:25.682Z,-2.26
2018-03-19T09:08:25.931Z,-2.28
2018-03-19T09:09:26.180Z,-2.18
2018-03-19T09:10:26.427Z,-2.32
2018-03-19T09:11:26.673Z,-2.23
2018-03-19T09:12:26.921Z,-2.13
2018-03-19T09:13:27.167Z,-2.28
2018-03-19T09:14:27.412Z,-2.21
2018-03-19T09:15:27.660Z,-2.20
2018-03-19T09:16:27.917Z,-1.98
2018-03-19T09:17:28.160Z,-1.77
2018-03-19T09:18:28.407Z,-1.85
2018-03-19T09:19:28.653Z,-1.92
2018-03-19T09:20:28.902Z,-1.90
2018-03-19T09:21:29.148Z,-1.93
2018-03-19T09:22:29.396Z,-1.78
2018-03-19T09:23:29.640Z,-1.82
2018-03-19T09:24:29.884Z,-1.87
2018-03-19T09:25:30.133Z,-1.85
2018-03-19T09:26:30.381Z,-1.81
2018-03-19T09:27:30.618Z,-1.81
2018-03-19T09:28:30.866Z,-1.80
2018-03-19T09:29:31.115Z,-1.62
2018-03-19T09:30:31.368Z,-1.48
2018-03-19T09:31:31.610Z,-1.36
2018-03-19T09:32:31.854Z,-1.35
2018-03-19T09:33:32.108Z,-1.23
2018-03-19T09:34:32.354Z,-1.30
2018-03-19T09:35:32.601Z,-1.35
2018-03-19T09:36:32.851Z,-1.24
2018-03-19T09:37:33.092Z,-1.10
2018-03-19T09:38:33.336Z,-1.21
2018-03-19T09:39:33.584Z,-1.07
2018-03-19T09:40:33.831Z,-1.00
2018-03-19T09:41:34.104Z,-1.03
2018-03-19T09:42:34.325Z,-0.92
2018-03-19T09:43:34.574Z,-0.87
2018-03-19T09:44:34.819Z,-0.70
2018-03-19T09:45:35.061Z,-0.65
2018-03-19T09:46:35.314Z,-0.60
2018-03-19T09:47:35.567Z,-0.50
2018-03-19T09:48:35.807Z,-0.39
2018-03-19T09:49:36.058Z,-0.34
2018-03-19T09:50:36.308Z,-0.44
2018-03-19T09:51:36.554Z,-0.60
2018-03-19T09:52:36.799Z,-0.60
2018-03-19T09:53:37.044Z,-0.77
2018-03-19T09:54:37.350Z,-0.63
2018-03-19T09:55:37.539Z,-0.72
2018-03-19T09:56:37.786Z,-0.65
2018-03-19T09:57:38.032Z,-0.73
2018-03-19T09:58:38.282Z,-0.62
2018-03-19T09:59:38.526Z,-0.63
2018-03-19T10:00:38.778Z,-0.54
2018-03-19T10:01:39.025Z,-0.66
2018-03-19T10:02:39.275Z,-0.65
2018-03-19T10:03:39.518Z,-0.54
2018-03-19T10:04:39.768Z,-0.70
2018-03-19T10:05:40.015Z,-0.63
2018-03-19T10:06:40.259Z,-0.59
2018-03-19T10:07:40.510Z,-0.48
2018-03-19T10:08:40.762Z,-0.45
2018-03-19T10:09:41.012Z,-0.31
2018-03-19T10:10:41.264Z,-0.24
2018-03-19T10:11:41.513Z,-0.16
2018-03-19T10:12:41.760Z,-0.19
2018-03-19T10:13:42.014Z,-0.12
2018-03-19T10:14:42.258Z,-0.22
2018-03-19T10:15:42.529Z,-0.22
2018-03-19T10:16:42.778Z,-0.22
2018-03-19T10:17:43.026Z,-0.06
2018-03-19T10:18:43.275Z,-0.12
2018-03-19T10:19:43.526Z,-0.19
2018-03-19T10:20:43.771Z,-0.42
2018-03-19T10:21:44.035Z,-0.52
2018-03-19T10:22:44.268Z,-0.44
2018-03-19T10:23:44.514Z,-0.36
2018-03-19T10:24:44.761Z,-0.23
2018-03-19T10:25:45.010Z,-0.24
2018-03-19T10:26:45.256Z,-0.15
2018-03-19T10:27:45.513Z,-0.13
2018-03-19T10:28:45.762Z,-0.11
2018-03-19T10:29:46.016Z,-0.09
2018-03-19T10:30:46.267Z,-0.16
2018-03-19T10:31:46.512Z,-0.29
2018-03-19T10:32:46.760Z,-0.34
2018-03-19T10:33:47.008Z,-0.48
2018-03-19T10:34:47.257Z,-0.47
2018-03-19T10:35:47.503Z,-0.30
2018-03-19T10:36:47.752Z,-0.23
2018-03-19T10:37:47.998Z,-0.15
2018-03-19T10:38:48.245Z,-0.15
2018-03-19T10:39:48.491Z,-0.13
2018-03-19T10:40:48.742Z,0.07
2018-03-19T10:41:48.990Z,0.02
2018-03-19T10:42:49.239Z,0.07
2018-03-19T10:43:49.487Z,-0.12
2018-03-19T10:44:49.734Z,0.05
2018-03-19T10:45:50.014Z,0.06
2018-03-19T10:46:50.233Z,0.02
2018-03-19T10:47:50.484Z,0.21
2018-03-19T10:48:50.729Z,0.12
2018-03-19T10:49:51.006Z,0.20
2018-03-19T10:50:51.220Z,0.31
2018-03-19T10:51:51.464Z,0.33
2018-03-19T10:52:51.720Z,0.31
2018-03-19T10:53:51.967Z,0.36
2018-03-19T10:54:52.229Z,0.42
2018-03-19T10:55:52.458Z,0.48
2018-03-19T10:56:52.706Z,0.39
2018-03-19T10:57:52.952Z,0.46
2018-03-19T10:58:53.202Z,0.61
2018-03-19T10:59:53.460Z,0.41
2018-03-19T11:00:53.695Z,0.36
2018-03-19T11:01:53.944Z,0.34
2018-03-19T11:02:54.226Z,0.36
2018-03-19T11:03:54.439Z,0.30
2018-03-19T11:04:54.693Z,0.43
2018-03-19T11:05:54.939Z,0.48
2018-03-19T11:06:55.184Z,0.57
2018-03-19T11:07:55.433Z,0.45
2018-03-19T11:08:55.686Z,0.33
2018-03-19T11:09:55.937Z,0.30
2018-03-19T11:10:56.181Z,0.36
2018-03-19T11:11:56.454Z,0.25
2018-03-19T11:12:56.680Z,0.34
2018-03-19T11:13:56.925Z,0.46
2018-03-19T11:14:57.174Z,0.61
2018-03-19T11:15:57.418Z,0.86
2018-03-19T11:16:57.669Z,1.01
2018-03-19T11:17:57.917Z,0.96
2018-03-19T11:18:58.167Z,0.96
2018-03-19T11:19:58.437Z,0.94
2018-03-19T11:20:58.658Z,0.96
2018-03-19T11:21:58.910Z,1.00
2018-03-19T11:22:59.171Z,0.92
2018-03-19T11:23:59.402Z,1.01
2018-03-19T11:24:59.649Z,1.00
2018-03-19T11:25:59.920Z,1.06
2018-03-19T11:27:00.147Z,1.08
2018-03-19T11:28:00.402Z,1.18
2018-03-19T11:29:00.648Z,1.16
2018-03-19T11:30:00.901Z,1.12
2018-03-19T11:31:01.146Z,1.10
2018-03-19T11:32:01.395Z,0.94
2018-03-19T11:33:01.665Z,0.88
2018-03-19T11:34:01.898Z,0.97
2018-03-19T11:35:02.147Z,0.96
2018-03-19T11:36:02.395Z,0.72
2018-03-19T11:37:02.649Z,0.65
2018-03-19T11:38:02.884Z,0.51
2018-03-19T11:39:03.131Z,0.45
2018-03-19T11:40:03.385Z,0.61
2018-03-19T11:41:03.632Z,0.75
2018-03-19T11:42:03.887Z,0.72
2018-03-19T11:43:04.134Z,0.76
2018-03-19T11:44:04.383Z,0.85
2018-03-19T11:45:04.627Z,0.78
2018-03-19T11:46:04.880Z,0.85
2018-03-19T11:47:05.123Z,0.89
2018-03-19T11:48:05.383Z,1.04
2018-03-19T11:49:05.625Z,1.15
2018-03-19T11:50:05.886Z,1.12
2018-03-19T11:51:06.121Z,1.10
2018-03-19T11:52:06.371Z,1.12
2018-03-19T11:53:06.618Z,1.32
2018-03-19T11:54:06.868Z,1.43
2018-03-19T11:55:07.118Z,1.50
2018-03-19T11:56:07.372Z,1.52
2018-03-19T11:57:07.622Z,1.44
2018-03-19T11:58:07.898Z,1.40
2018-03-19T11:59:08.161Z,1.46
2018-03-19T12:00:08.369Z,1.55
2018-03-19T12:01:08.623Z,1.60
2018-03-19T12:02:08.867Z,1.40
2018-03-19T12:03:09.117Z,1.44
2018-03-19T12:04:09.356Z,1.50
2018-03-19T12:05:09.619Z,1.58
2018-03-19T12:06:09.870Z,1.58
2018-03-19T12:07:10.114Z,1.64
2018-03-19T12:08:10.362Z,1.80
2018-03-19T12:09:10.606Z,1.73
2018-03-19T12:10:10.858Z,1.65
2018-03-19T12:11:11.109Z,1.58
2018-03-19T12:12:11.358Z,1.69
2018-03-19T12:13:11.608Z,1.73
2018-03-19T12:14:11.891Z,1.61
2018-03-19T12:15:12.101Z,1.54
2018-03-19T12:16:12.346Z,1.62
2018-03-19T12:17:12.601Z,1.65
2018-03-19T12:18:12.845Z,1.60
2018-03-19T12:19:13.135Z,1.65
2018-03-19T12:20:13.348Z,1.80
2018-03-19T12:21:13.598Z,1.58
2018-03-19T12:22:13.845Z,1.65
2018-03-19T12:23:14.094Z,1.52
2018-03-19T12:24:14.341Z,1.69
2018-03-19T12:25:14.592Z,1.68
2018-03-19T12:26:14.838Z,1.75
2018-03-19T12:27:15.090Z,1.72
2018-03-19T12:28:15.331Z,1.80
2018-03-19T12:29:15.574Z,1.85
2018-03-19T12:30:15.834Z,1.73
2018-03-19T12:31:16.068Z,1.76
2018-03-19T12:32:16.320Z,1.54
2018-03-19T12:33:16.570Z,1.46
2018-03-19T12:34:16.821Z,1.65
2018-03-19T12:35:17.069Z,1.79
2018-03-19T12:36:17.318Z,1.91
2018-03-19T12:37:17.569Z,1.79
2018-03-19T12:38:17.823Z,1.91
2018-03-19T12:39:18.070Z,1.83
2018-03-19T12:40:18.318Z,1.76
2018-03-19T12:41:18.576Z,1.85
2018-03-19T12:42:18.822Z,1.78
2018-03-19T12:43:19.066Z,1.76
2018-03-19T12:44:19.313Z,1.90
2018-03-19T12:45:19.566Z,1.83
2018-03-19T12:46:19.813Z,1.76
2018-03-19T12:47:20.052Z,1.69
2018-03-19T12:48:20.300Z,1.79
2018-03-19T12:49:20.545Z,1.82
2018-03-19T12:50:20.799Z,2.01
2018-03-19T12:51:21.105Z,2.16
2018-03-19T12:52:21.319Z,2.22
2018-03-19T12:53:21.564Z,2.37
2018-03-19T12:54:21.817Z,2.38
2018-03-19T12:55:22.071Z,2.53
2018-03-19T12:56:22.323Z,2.52
2018-03-19T12:57:22.573Z,2.55
2018-03-19T12:58:22.837Z,2.70
2018-03-19T12:59:23.075Z,2.59
2018-03-19T13:00:23.321Z,2.69
2018-03-19T13:01:23.597Z,2.49
2018-03-19T13:02:23.817Z,2.17